Ireland METAR reports

 

EIDW - Dublin Airport, Ireland
Distance from station: WNW 13km
Updated: 13/11/2019 04:00
Mostly cloudy
Mostly cloudy
 Wind from WSW
Wind: WSW 13 km/h
Temperature: 2°C
Wind Chill: -1°C
Dew Point: 1°C
Humidity: 93%
Barometer: 1002 hPa
Clouds: Mostly cloudy
Visibility: 10 km
Cloud details: Few Clouds 671 m
Mostly cloudy 4572 m
2019/11/13 04:00 EIDW 130400Z 24007KT 200V280 9999 FEW022 BKN150 02/01 Q1002 NOSIG
EIME - Casement (mil), Ireland
Distance from station: WSW 26km
Updated: 13/11/2019 04:00
Partly cloudy
Partly cloudy
 Wind from WSW
Wind: WSW 28 km/h
Temperature: 3°C
Wind Chill: -3°C
Dew Point: 1°C
Humidity: 87%
Barometer: 1002 hPa
Clouds: Partly cloudy
Visibility: 10 km
Cloud details: Few Clouds 549 m
Partly cloudy 3962 m
2019/11/13 04:00 EIME 130400Z 24015KT 9999 FEW018 SCT130 03/01 Q1002
 
EGAC - Belfast Harbour, United Kingdom
Distance from station: N 140km
Updated: 13/11/2019 04:20
Clear
Clear
 Wind from SE
Wind: SE 7 km/h
Temperature: 2°C
Wind Chill: 0°C
Dew Point: 2°C
Humidity: 100%
Barometer: 1000 hPa
Clouds: Clear
Visibility: 10 km
2019/11/13 04:20 EGAC 130420Z AUTO 14004KT 9999 NCD 02/02 Q1000
EGAA - Belfast/Aldergro, United Kingdom
Distance from station: N 141km
Updated: 13/11/2019 04:20
Few Clouds
Few Clouds
 Wind from SSW
Wind: SSW 9 km/h
Temperature: 2°C
Wind Chill: -1°C
Dew Point: 2°C
Humidity: 100%
Barometer: 1000 hPa
Clouds: Few Clouds
Visibility: 10 km
Cloud details: Few Clouds 152 m
2019/11/13 04:20 EGAA 130420Z AUTO 20005KT 9999 FEW005/// 02/02 Q1000
 
EIWF - Waterford Arpt, Ireland
Distance from station: SSW 148km
Updated: 12/11/2019 20:30
NOT Current
Clear
Clear
 Wind from W
Wind: W 9 km/h
Temperature: 4°C
Wind Chill: 2°C
Dew Point: 2°C
Humidity: 87%
Barometer: 1007 hPa
Summary: Clear
Visibility: greater than 10 km
2019/11/12 20:30 EIWF 122030Z 28005KT 220V350 CAVOK 04/02 Q1007
EIKN - Connaught Apt, Ireland
Distance from station: WNW 191km
Updated: 12/11/2019 19:00
NOT Current
Few Clouds
Few Clouds
 Wind from WNW
Wind: WNW 15 km/h
Temperature: 3°C
Wind Chill: -1°C
Dew Point: 1°C
Humidity: 87%
Barometer: 1006 hPa
Clouds: Few Clouds
Visibility: 10 km
Cloud details: Few Clouds 610 m
2019/11/12 19:00 EIKN 121900Z 29008KT 9999 FEW020CB 03/01 Q1006 NOSIG
 
EISG - Sligo Arpt, Ireland
Distance from station: WNW 195km
Updated: 12/11/2019 14:30
NOT Current
Mostly cloudy
Mostly cloudy
 Wind from NNW
Wind: NNW 31 km/h
Temperature: 8°C
Wind Chill: 3°C
Dew Point: 4°C
Humidity: 76%
Barometer: 1004 hPa
Clouds: Mostly cloudy
Visibility: 10 km
Cloud details: Few Clouds 823 m
Partly cloudy 1128 m
Mostly cloudy 1494 m
2019/11/12 14:30 EISG 121430Z 33017KT 9999 FEW027 SCT037 BKN049 08/04 Q1004
EGAE - Eglinton/Londond, United Kingdom
Distance from station: NNW 198km
Updated: 12/11/2019 20:50
NOT Current
Nearby showers, Partly cloudy
Nearby showers, Partly cloudy
 Wind from W
Wind: W 20 km/h
Temperature: 6°C
Wind Chill: 2°C
Dew Point: 5°C
Humidity: 93%
Barometer: 1003 hPa
Summary: Nearby Showers
Clouds: Partly cloudy
Visibility: 10 km
Cloud details: Few Clouds 305 m
Partly cloudy 1097 m
2019/11/12 20:50 EGAE 122050Z 26011KT 9999 VCSH FEW010 SCT036 06/05 Q1003
 
EINN - Shannon Airport, Ireland
Distance from station: WSW 204km
Updated: 13/11/2019 04:00
Mostly cloudy
Mostly cloudy
 Wind from S
Wind: S 15 km/h
Temperature: 5°C
Wind Chill: 2°C
Dew Point: 4°C
Humidity: 93%
Barometer: 1003 hPa
Clouds: Mostly cloudy
Visibility: 10 km
Cloud details: Few Clouds 732 m
Mostly cloudy 1372 m
Mostly cloudy 3658 m
2019/11/13 04:00 EINN 130400Z 19008KT 9999 FEW024 BKN045 BKN120 05/04 Q1003 NOSIG
EICK - Cork Arpt/Corcai, Ireland
Distance from station: SW 234km
Updated: 13/11/2019 04:00
Mostly cloudy
Mostly cloudy
 Wind from SW
Wind: SW 11 km/h
Temperature: 4°C
Wind Chill: 1°C
Dew Point: 2°C
Humidity: 87%
Barometer: 1004 hPa
Clouds: Mostly cloudy
Visibility: 10 km
Cloud details: Few Clouds 1067 m
Partly cloudy 2134 m
Mostly cloudy 3658 m
2019/11/13 04:00 EICK 130400Z 23006KT 9999 FEW035 SCT070 BKN120 04/02 Q1004 NOSIG